PWSweather.com
Personal Weather Stations
Station Observations
SPARKSRC
St. Petersburg, FL 33716

St. Petersburg, FL 33716

Lat: 27.876101, Lon: -82.657194

Elevation: 13

Station Type: Zephyr PWS-1000TD

Latest ConditionsUpdated 12:50:01 PM EDT Saturday, Jul 23, 2016
Currently Today's Max Today's Min Today's Average
Temperature 107.6°F42.0°C 107.6°F42.0°C 74.8°F23.8°C 82.9°F28.3°C
Dew Point 85.1°F29.5°C 85.1°F29.5°C 68.6°F20.3°C 73.4°F23.0°C
Winds 1.6 mph E2.6 kmh E 9.2 mph SE14.8 kmh SE - 2.8 mph 4.5 kmh
Wind Gusts 11.4 mph18.3 kmh 13.0 mph20.9 kmh - -
Humidity 50% 82% 50% 74%
Pressure 29.82 in1009.8 mb 29.84 in1010.5 mb 29.78 in1008.5 mb -
Precipitation - 0.01 in0.3 mm - -
Hour Temp Dew Point Humidity Winds Wind Gusts Pressure Precip Precip Rate Daily Precip Total
12:50 PM 107.6°F42.0°C 85.1°F29.5°C 50% 1.6 mph E2.6 kmh E 11.4 mph18.3 kmh 29.82 in1009.8 mb 0.00 in0.0 mm 0.00 in0.0 mm 0.01 in0.3 mm
12:45 PM 106.3°F41.3°C 83.9°F28.8°C 50% 4.5 mph E7.2 kmh E 11.4 mph18.3 kmh 29.82 in1009.8 mb 0.00 in0.0 mm 0.00 in0.0 mm 0.01 in0.3 mm
12:35 PM 104.2°F40.1°C 83.8°F28.8°C 53% 3.1 mph SSE5.0 kmh SSE 7.6 mph12.2 kmh 29.82 in1009.8 mb 0.00 in0.0 mm 0.00 in0.0 mm 0.01 in0.3 mm
12:30 PM 104.0°F40.0°C 83.6°F28.7°C 53% 3.8 mph ESE6.1 kmh ESE 6.0 mph9.7 kmh 29.82 in1009.8 mb 0.00 in0.0 mm 0.00 in0.0 mm 0.01 in0.3 mm
12:25 PM 104.0°F40.0°C 83.6°F28.7°C 53% 2.2 mph ESE3.5 kmh ESE 6.9 mph11.1 kmh 29.82 in1009.8 mb 0.00 in0.0 mm 0.00 in0.0 mm 0.01 in0.3 mm
12:20 PM 103.1°F39.5°C 83.3°F28.5°C 54% 3.1 mph SE5.0 kmh SE 9.2 mph14.8 kmh 29.82 in1009.8 mb 0.00 in0.0 mm 0.00 in0.0 mm 0.01 in0.3 mm
12:10 PM 101.5°F38.6°C 81.8°F27.7°C 54% 6.0 mph SE9.7 kmh SE 9.2 mph14.8 kmh 29.82 in1009.8 mb 0.00 in0.0 mm 0.00 in0.0 mm 0.01 in0.3 mm
12:05 PM 100.9°F38.3°C 81.9°F27.7°C 55% 4.5 mph SE7.2 kmh SE 9.8 mph15.8 kmh 29.82 in1009.8 mb 0.00 in0.0 mm 0.00 in0.0 mm 0.01 in0.3 mm
12:00 PM 101.7°F38.7°C 82.6°F28.1°C 55% 6.9 mph ESE11.1 kmh ESE 9.8 mph15.8 kmh 29.82 in1009.8 mb 0.00 in0.0 mm 0.00 in0.0 mm 0.01 in0.3 mm
11:55 AM 101.3°F38.5°C 82.8°F28.2°C 56% 4.5 mph ESE7.2 kmh ESE 12.1 mph19.5 kmh 29.82 in1009.8 mb 0.00 in0.0 mm 0.00 in0.0 mm 0.01 in0.3 mm
11:45 AM 100.9°F38.3°C 82.5°F28.1°C 56% 6.9 mph ESE11.1 kmh ESE 13.0 mph20.9 kmh 29.82 in1009.8 mb 0.00 in0.0 mm 0.00 in0.0 mm 0.01 in0.3 mm
11:40 AM 100.6°F38.1°C 82.1°F27.8°C 56% 6.0 mph SE9.7 kmh SE 13.0 mph20.9 kmh 29.82 in1009.8 mb 0.00 in0.0 mm 0.00 in0.0 mm 0.01 in0.3 mm
11:35 AM 101.5°F38.6°C 82.4°F28.0°C 55% 9.2 mph SE14.8 kmh SE 11.4 mph18.3 kmh 29.82 in1009.8 mb 0.00 in0.0 mm 0.00 in0.0 mm 0.01 in0.3 mm
11:30 AM 101.3°F38.5°C 82.8°F28.2°C 56% 5.4 mph S8.7 kmh S 10.7 mph17.2 kmh 29.83 in1010.2 mb 0.00 in0.0 mm 0.00 in0.0 mm 0.01 in0.3 mm
11:20 AM 100.6°F38.1°C 82.1°F27.8°C 56% 4.5 mph SSE7.2 kmh SSE 9.2 mph14.8 kmh 29.83 in1010.2 mb 0.00 in0.0 mm 0.00 in0.0 mm 0.01 in0.3 mm
11:15 AM 99.9°F37.7°C 82.0°F27.8°C 57% 3.8 mph SE6.1 kmh SE 8.3 mph13.4 kmh 29.83 in1010.2 mb 0.00 in0.0 mm 0.00 in0.0 mm 0.01 in0.3 mm
11:10 AM 99.3°F37.4°C 82.0°F27.8°C 58% 4.5 mph SE7.2 kmh SE 9.2 mph14.8 kmh 29.83 in1010.2 mb 0.00 in0.0 mm 0.00 in0.0 mm 0.01 in0.3 mm
11:05 AM 99.0°F37.2°C 81.7°F27.6°C 58% 3.8 mph SE6.1 kmh SE 9.2 mph14.8 kmh 29.83 in1010.2 mb 0.00 in0.0 mm 0.00 in0.0 mm 0.01 in0.3 mm
10:55 AM 98.6°F37.0°C 81.4°F27.4°C 58% 6.0 mph E9.7 kmh E 7.6 mph12.2 kmh 29.83 in1010.2 mb 0.00 in0.0 mm 0.00 in0.0 mm 0.01 in0.3 mm
10:50 AM 98.4°F36.9°C 81.7°F27.6°C 59% 5.4 mph SE8.7 kmh SE 9.2 mph14.8 kmh 29.82 in1009.8 mb 0.00 in0.0 mm 0.00 in0.0 mm 0.01 in0.3 mm
10:45 AM 98.1°F36.7°C 81.4°F27.4°C 59% 5.4 mph SE8.7 kmh SE 9.2 mph14.8 kmh 29.82 in1009.8 mb 0.00 in0.0 mm 0.00 in0.0 mm 0.01 in0.3 mm
10:40 AM 97.7°F36.5°C 81.0°F27.2°C 59% 4.5 mph SE7.2 kmh SE 7.6 mph12.2 kmh 29.82 in1009.8 mb 0.00 in0.0 mm 0.00 in0.0 mm 0.01 in0.3 mm
10:30 AM 96.6°F35.9°C 81.1°F27.3°C 61% 2.2 mph SE3.5 kmh SE 7.6 mph12.2 kmh 29.82 in1009.8 mb 0.00 in0.0 mm 0.00 in0.0 mm 0.01 in0.3 mm
10:25 AM 96.3°F35.7°C 80.7°F27.1°C 61% 4.5 mph SSE7.2 kmh SSE 7.6 mph12.2 kmh 29.82 in1009.8 mb 0.00 in0.0 mm 0.00 in0.0 mm 0.01 in0.3 mm
10:20 AM 95.9°F35.5°C 80.4°F26.9°C 61% 5.4 mph SSE8.7 kmh SSE 8.3 mph13.4 kmh 29.82 in1009.8 mb 0.00 in0.0 mm 0.00 in0.0 mm 0.01 in0.3 mm
10:15 AM 95.7°F35.4°C 80.2°F26.8°C 61% 4.5 mph SE7.2 kmh SE 8.3 mph13.4 kmh 29.81 in1009.5 mb 0.00 in0.0 mm 0.00 in0.0 mm 0.01 in0.3 mm
10:05 AM 95.2°F35.1°C 80.2°F26.8°C 62% 5.4 mph SE8.7 kmh SE 7.6 mph12.2 kmh 29.82 in1009.8 mb 0.00 in0.0 mm 0.00 in0.0 mm 0.01 in0.3 mm
10:00 AM 94.5°F34.7°C 80.5°F26.9°C 64% 3.8 mph ESE6.1 kmh ESE 6.0 mph9.7 kmh 29.82 in1009.8 mb 0.00 in0.0 mm 0.00 in0.0 mm 0.01 in0.3 mm
09:55 AM 93.6°F34.2°C 80.1°F26.7°C 65% 4.5 mph SE7.2 kmh SE 6.9 mph11.1 kmh 29.82 in1009.8 mb 0.00 in0.0 mm 0.00 in0.0 mm 0.01 in0.3 mm
09:50 AM 92.5°F33.6°C 79.6°F26.4°C 66% 3.8 mph SE6.1 kmh SE 6.9 mph11.1 kmh 29.81 in1009.5 mb 0.00 in0.0 mm 0.00 in0.0 mm 0.01 in0.3 mm
09:40 AM 91.2°F32.9°C 78.4°F25.8°C 66% 3.8 mph SE6.1 kmh SE 8.3 mph13.4 kmh 29.81 in1009.5 mb 0.00 in0.0 mm 0.00 in0.0 mm 0.01 in0.3 mm
09:35 AM 91.2°F32.9°C 78.4°F25.8°C 66% 6.0 mph SE9.7 kmh SE 8.3 mph13.4 kmh 29.81 in1009.5 mb 0.00 in0.0 mm 0.00 in0.0 mm 0.01 in0.3 mm
09:30 AM 91.2°F32.9°C 78.8°F26.0°C 67% 5.4 mph ESE8.7 kmh ESE 8.3 mph13.4 kmh 29.82 in1009.8 mb 0.00 in0.0 mm 0.00 in0.0 mm 0.01 in0.3 mm
09:25 AM 90.3°F32.4°C 78.4°F25.8°C 68% 3.8 mph ESE6.1 kmh ESE 8.3 mph13.4 kmh 29.82 in1009.8 mb 0.00 in0.0 mm 0.00 in0.0 mm 0.01 in0.3 mm
09:15 AM 89.1°F31.7°C 77.6°F25.3°C 69% 3.8 mph SSE6.1 kmh SSE 8.3 mph13.4 kmh 29.82 in1009.8 mb 0.00 in0.0 mm 0.00 in0.0 mm 0.01 in0.3 mm
09:10 AM 88.7°F31.5°C 77.7°F25.4°C 70% 6.0 mph SE9.7 kmh SE 8.3 mph13.4 kmh 29.81 in1009.5 mb 0.00 in0.0 mm 0.00 in0.0 mm 0.01 in0.3 mm
09:05 AM 88.2°F31.2°C 77.6°F25.3°C 71% 6.0 mph SE9.7 kmh SE 8.3 mph13.4 kmh 29.81 in1009.5 mb 0.00 in0.0 mm 0.00 in0.0 mm 0.01 in0.3 mm
09:00 AM 87.4°F30.8°C 77.0°F25.0°C 71% 4.5 mph SSE7.2 kmh SSE 8.3 mph13.4 kmh 29.81 in1009.5 mb 0.00 in0.0 mm 0.00 in0.0 mm 0.01 in0.3 mm
08:50 AM 86.2°F30.1°C 76.2°F24.6°C 72% 4.5 mph ESE7.2 kmh ESE 9.2 mph14.8 kmh 29.81 in1009.5 mb 0.00 in0.0 mm 0.00 in0.0 mm 0.01 in0.3 mm
08:45 AM 85.8°F29.9°C 76.2°F24.6°C 73% 5.4 mph SE8.7 kmh SE 9.8 mph15.8 kmh 29.80 in1009.1 mb 0.00 in0.0 mm 0.00 in0.0 mm 0.01 in0.3 mm
08:40 AM 85.3°F29.6°C 76.1°F24.5°C 74% 5.4 mph SE8.7 kmh SE 9.8 mph15.8 kmh 29.80 in1009.1 mb 0.00 in0.0 mm 0.00 in0.0 mm 0.01 in0.3 mm
08:35 AM 84.7°F29.3°C 75.6°F24.2°C 74% 6.0 mph SE9.7 kmh SE 9.8 mph15.8 kmh 29.80 in1009.1 mb 0.00 in0.0 mm 0.00 in0.0 mm 0.01 in0.3 mm
08:25 AM 82.8°F28.2°C 74.5°F23.6°C 76% 4.5 mph ESE7.2 kmh ESE 7.6 mph12.2 kmh 29.80 in1009.1 mb 0.00 in0.0 mm 0.00 in0.0 mm 0.01 in0.3 mm
08:20 AM 82.2°F27.9°C 74.0°F23.3°C 76% 6.0 mph ESE9.7 kmh ESE 8.3 mph13.4 kmh 29.80 in1009.1 mb 0.00 in0.0 mm 0.00 in0.0 mm 0.01 in0.3 mm
08:15 AM 81.7°F27.6°C 73.8°F23.2°C 77% 4.5 mph E7.2 kmh E 8.3 mph13.4 kmh 29.80 in1009.1 mb 0.00 in0.0 mm 0.00 in0.0 mm 0.01 in0.3 mm
08:10 AM 81.0°F27.2°C 73.1°F22.8°C 77% 3.8 mph E6.1 kmh E 6.9 mph11.1 kmh 29.80 in1009.1 mb 0.00 in0.0 mm 0.00 in0.0 mm 0.01 in0.3 mm
08:05 AM 80.4°F26.9°C 72.6°F22.6°C 77% 2.2 mph E3.5 kmh E 6.0 mph9.7 kmh 29.80 in1009.1 mb 0.00 in0.0 mm 0.00 in0.0 mm 0.01 in0.3 mm
08:00 AM 80.1°F26.7°C 72.3°F22.4°C 77% 3.8 mph E6.1 kmh E 6.0 mph9.7 kmh 29.80 in1009.1 mb 0.00 in0.0 mm 0.00 in0.0 mm 0.01 in0.3 mm
07:55 AM 80.1°F26.7°C 72.6°F22.6°C 78% 2.2 mph ESE3.5 kmh ESE 6.9 mph11.1 kmh 29.80 in1009.1 mb 0.00 in0.0 mm 0.00 in0.0 mm 0.01 in0.3 mm
07:50 AM 79.5°F26.4°C 72.5°F22.5°C 79% 3.8 mph ESE6.1 kmh ESE 6.9 mph11.1 kmh 29.80 in1009.1 mb 0.00 in0.0 mm 0.00 in0.0 mm 0.01 in0.3 mm
07:45 AM 78.8°F26.0°C 71.8°F22.1°C 79% 3.1 mph ESE5.0 kmh ESE 6.0 mph9.7 kmh 29.79 in1008.8 mb 0.00 in0.0 mm 0.00 in0.0 mm 0.01 in0.3 mm
07:35 AM 77.5°F25.3°C 71.3°F21.8°C 81% 2.2 mph ESE3.5 kmh ESE 6.0 mph9.7 kmh 29.80 in1009.1 mb 0.00 in0.0 mm 0.00 in0.0 mm 0.01 in0.3 mm
07:30 AM 76.8°F24.9°C 70.6°F21.4°C 81% 1.6 mph ESE2.6 kmh ESE 6.0 mph9.7 kmh 29.79 in1008.8 mb 0.00 in0.0 mm 0.00 in0.0 mm 0.01 in0.3 mm
07:25 AM 76.3°F24.6°C 70.1°F21.2°C 81% 4.5 mph SE7.2 kmh SE 6.0 mph9.7 kmh 29.79 in1008.8 mb 0.00 in0.0 mm 0.00 in0.0 mm 0.01 in0.3 mm
07:20 AM 75.9°F24.4°C 70.1°F21.2°C 82% 3.1 mph SE5.0 kmh SE 4.5 mph7.2 kmh 29.78 in1008.5 mb 0.00 in0.0 mm 0.00 in0.0 mm 0.01 in0.3 mm
07:10 AM 75.4°F24.1°C 69.2°F20.7°C 81% 2.2 mph SE3.5 kmh SE 5.4 mph8.7 kmh 29.78 in1008.5 mb 0.00 in0.0 mm 0.00 in0.0 mm 0.01 in0.3 mm
07:05 AM 75.4°F24.1°C 69.2°F20.7°C 81% 3.8 mph SE6.1 kmh SE 5.4 mph8.7 kmh 29.78 in1008.5 mb 0.00 in0.0 mm 0.00 in0.0 mm 0.01 in0.3 mm
07:00 AM 75.2°F24.0°C 69.0°F20.6°C 81% 3.1 mph SE5.0 kmh SE 4.5 mph7.2 kmh 29.78 in1008.5 mb 0.00 in0.0 mm 0.00 in0.0 mm 0.01 in0.3 mm
06:55 AM 75.2°F24.0°C 69.0°F20.6°C 81% 2.2 mph SE3.5 kmh SE 4.5 mph7.2 kmh 29.79 in1008.8 mb 0.00 in0.0 mm 0.00 in0.0 mm 0.01 in0.3 mm
06:50 AM 75.2°F24.0°C 69.0°F20.6°C 81% 2.2 mph SE3.5 kmh SE 4.5 mph7.2 kmh 29.78 in1008.5 mb 0.00 in0.0 mm 0.00 in0.0 mm 0.01 in0.3 mm
06:45 AM 75.0°F23.9°C 68.8°F20.4°C 81% 3.1 mph SE5.0 kmh SE 4.5 mph7.2 kmh 29.79 in1008.8 mb 0.00 in0.0 mm 0.00 in0.0 mm 0.01 in0.3 mm
06:40 AM 75.0°F23.9°C 68.8°F20.4°C 81% 0.7 mph SE1.1 kmh SE 3.8 mph6.1 kmh 29.79 in1008.8 mb 0.00 in0.0 mm 0.00 in0.0 mm 0.01 in0.3 mm
06:35 AM 74.8°F23.8°C 68.7°F20.4°C 81% 1.6 mph SSE2.6 kmh SSE 4.5 mph7.2 kmh 29.79 in1008.8 mb 0.00 in0.0 mm 0.00 in0.0 mm 0.01 in0.3 mm
06:30 AM 74.8°F23.8°C 68.7°F20.4°C 81% 2.2 mph S3.5 kmh S 4.5 mph7.2 kmh 29.79 in1008.8 mb 0.00 in0.0 mm 0.00 in0.0 mm 0.01 in0.3 mm
06:20 AM 75.0°F23.9°C 68.8°F20.4°C 81% 3.1 mph S5.0 kmh S 4.5 mph7.2 kmh 29.80 in1009.1 mb 0.00 in0.0 mm 0.00 in0.0 mm 0.01 in0.3 mm
06:15 AM 74.8°F23.8°C 68.7°F20.4°C 81% 2.2 mph S3.5 kmh S 3.8 mph6.1 kmh 29.79 in1008.8 mb 0.00 in0.0 mm 0.00 in0.0 mm 0.01 in0.3 mm
06:10 AM 75.0°F23.9°C 68.8°F20.4°C 81% 2.2 mph S3.5 kmh S 3.1 mph5.0 kmh 29.80 in1009.1 mb 0.00 in0.0 mm 0.00 in0.0 mm 0.01 in0.3 mm
06:05 AM 75.0°F23.9°C 68.8°F20.4°C 81% 2.2 mph S3.5 kmh S 3.1 mph5.0 kmh 29.80 in1009.1 mb 0.00 in0.0 mm 0.00 in0.0 mm 0.01 in0.3 mm
05:55 AM 74.8°F23.8°C 68.7°F20.4°C 81% Calm Calm 1.6 mph2.6 kmh 29.79 in1008.8 mb 0.00 in0.0 mm 0.00 in0.0 mm 0.01 in0.3 mm
05:50 AM 74.8°F23.8°C 68.7°F20.4°C 81% 0.7 mph N1.1 kmh N 1.6 mph2.6 kmh 29.78 in1008.5 mb 0.00 in0.0 mm 0.00 in0.0 mm 0.01 in0.3 mm
05:45 AM 74.8°F23.8°C 68.7°F20.4°C 81% Calm Calm 0.7 mph1.1 kmh 29.79 in1008.8 mb 0.00 in0.0 mm 0.00 in0.0 mm 0.01 in0.3 mm
05:40 AM 74.8°F23.8°C 68.7°F20.4°C 81% Calm Calm 0.7 mph1.1 kmh 29.80 in1009.1 mb 0.00 in0.0 mm 0.00 in0.0 mm 0.01 in0.3 mm
05:30 AM 75.2°F24.0°C 68.6°F20.3°C 80% Calm Calm 1.6 mph2.6 kmh 29.80 in1009.1 mb 0.00 in0.0 mm 0.00 in0.0 mm 0.01 in0.3 mm
05:25 AM 75.2°F24.0°C 68.6°F20.3°C 80% Calm Calm 2.2 mph3.5 kmh 29.80 in1009.1 mb 0.00 in0.0 mm 0.00 in0.0 mm 0.01 in0.3 mm
05:20 AM 75.2°F24.0°C 68.6°F20.3°C 80% Calm Calm 2.2 mph3.5 kmh 29.80 in1009.1 mb 0.00 in0.0 mm 0.00 in0.0 mm 0.01 in0.3 mm
05:15 AM 75.2°F24.0°C 68.6°F20.3°C 80% 0.7 mph N1.1 kmh N 2.2 mph3.5 kmh 29.80 in1009.1 mb 0.00 in0.0 mm 0.00 in0.0 mm 0.01 in0.3 mm
05:05 AM 75.6°F24.2°C 69.4°F20.8°C 81% Calm Calm 2.2 mph3.5 kmh 29.81 in1009.5 mb 0.00 in0.0 mm 0.00 in0.0 mm 0.01 in0.3 mm
05:00 AM 75.2°F24.0°C 68.6°F20.3°C 80% 0.7 mph ENE1.1 kmh ENE 2.2 mph3.5 kmh 29.81 in1009.5 mb 0.00 in0.0 mm 0.00 in0.0 mm 0.01 in0.3 mm
04:55 AM 75.4°F24.1°C 68.8°F20.4°C 80% 0.7 mph ENE1.1 kmh ENE 2.2 mph3.5 kmh 29.81 in1009.5 mb 0.00 in0.0 mm 0.00 in0.0 mm 0.01 in0.3 mm
04:50 AM 75.4°F24.1°C 68.8°F20.4°C 80% Calm Calm 2.2 mph3.5 kmh 29.80 in1009.1 mb 0.00 in0.0 mm 0.00 in0.0 mm 0.01 in0.3 mm
04:40 AM 75.2°F24.0°C 69.0°F20.6°C 81% 0.7 mph S1.1 kmh S 1.6 mph2.6 kmh 29.80 in1009.1 mb 0.01 in0.3 mm 0.00 in0.0 mm 0.01 in0.3 mm
04:35 AM 75.4°F24.1°C 68.8°F20.4°C 80% Calm Calm 2.2 mph3.5 kmh 29.80 in1009.1 mb 0.01 in0.3 mm 0.00 in0.0 mm 0.01 in0.3 mm
04:30 AM 75.6°F24.2°C 69.0°F20.6°C 80% Calm Calm 2.2 mph3.5 kmh 29.80 in1009.1 mb 0.01 in0.3 mm 0.00 in0.0 mm 0.01 in0.3 mm
04:25 AM 75.7°F24.3°C 69.2°F20.7°C 80% Calm Calm 1.6 mph2.6 kmh 29.80 in1009.1 mb 0.01 in0.3 mm 0.00 in0.0 mm 0.01 in0.3 mm
04:15 AM 75.7°F24.3°C 69.2°F20.7°C 80% 0.7 mph S1.1 kmh S 3.1 mph5.0 kmh 29.81 in1009.5 mb 0.01 in0.3 mm 0.00 in0.0 mm 0.01 in0.3 mm
04:10 AM 75.7°F24.3°C 69.5°F20.8°C 81% 0.7 mph SSE1.1 kmh SSE 3.8 mph6.1 kmh 29.81 in1009.5 mb 0.01 in0.3 mm 0.00 in0.0 mm 0.01 in0.3 mm
04:05 AM 75.7°F24.3°C 69.5°F20.8°C 81% 2.2 mph SE3.5 kmh SE 3.8 mph6.1 kmh 29.81 in1009.5 mb 0.01 in0.3 mm 0.00 in0.0 mm 0.01 in0.3 mm
04:00 AM 75.7°F24.3°C 69.5°F20.8°C 81% 0.7 mph E1.1 kmh E 2.2 mph3.5 kmh 29.81 in1009.5 mb 0.01 in0.3 mm 0.00 in0.0 mm 0.01 in0.3 mm
03:55 AM 75.7°F24.3°C 69.5°F20.8°C 81% 0.7 mph SE1.1 kmh SE 3.1 mph5.0 kmh 29.81 in1009.5 mb 0.01 in0.3 mm 0.00 in0.0 mm 0.01 in0.3 mm
03:50 AM 75.7°F24.3°C 69.5°F20.8°C 81% 0.7 mph SE1.1 kmh SE 3.1 mph5.0 kmh 29.81 in1009.5 mb 0.01 in0.3 mm 0.00 in0.0 mm 0.01 in0.3 mm
03:45 AM 75.7°F24.3°C 69.5°F20.8°C 81% 1.6 mph E2.6 kmh E 3.1 mph5.0 kmh 29.81 in1009.5 mb 0.01 in0.3 mm 0.12 in3.0 mm 0.01 in0.3 mm
03:40 AM 75.7°F24.3°C 69.5°F20.8°C 81% 1.6 mph ESE2.6 kmh ESE 3.1 mph5.0 kmh 29.80 in1009.1 mb 0.00 in0.0 mm 0.00 in0.0 mm 0.00 in0.0 mm
03:35 AM 75.7°F24.3°C 69.5°F20.8°C 81% 1.6 mph SSE2.6 kmh SSE 3.1 mph5.0 kmh 29.81 in1009.5 mb 0.00 in0.0 mm 0.00 in0.0 mm 0.00 in0.0 mm
03:25 AM 75.9°F24.4°C 69.7°F20.9°C 81% 2.2 mph SW3.5 kmh SW 3.1 mph5.0 kmh 29.81 in1009.5 mb 0.00 in0.0 mm 0.00 in0.0 mm 0.00 in0.0 mm
03:20 AM 76.1°F24.5°C 69.9°F21.1°C 81% 0.7 mph WSW1.1 kmh WSW 3.1 mph5.0 kmh 29.81 in1009.5 mb 0.00 in0.0 mm 0.00 in0.0 mm 0.00 in0.0 mm
03:15 AM 76.1°F24.5°C 69.9°F21.1°C 81% 2.2 mph ESE3.5 kmh ESE 3.1 mph5.0 kmh 29.81 in1009.5 mb 0.00 in0.0 mm 0.00 in0.0 mm 0.00 in0.0 mm
03:10 AM 76.3°F24.6°C 70.1°F21.2°C 81% Calm Calm 3.8 mph6.1 kmh 29.81 in1009.5 mb 0.00 in0.0 mm 0.00 in0.0 mm 0.00 in0.0 mm
03:05 AM 76.3°F24.6°C 70.1°F21.2°C 81% 2.2 mph E3.5 kmh E 4.5 mph7.2 kmh 29.82 in1009.8 mb 0.00 in0.0 mm 0.00 in0.0 mm 0.00 in0.0 mm
03:00 AM 76.3°F24.6°C 70.1°F21.2°C 81% 2.2 mph SE3.5 kmh SE 5.4 mph8.7 kmh 29.81 in1009.5 mb 0.00 in0.0 mm 0.00 in0.0 mm 0.00 in0.0 mm
02:55 AM 76.3°F24.6°C 70.1°F21.2°C 81% 3.1 mph SE5.0 kmh SE 5.4 mph8.7 kmh 29.81 in1009.5 mb 0.00 in0.0 mm 0.00 in0.0 mm 0.00 in0.0 mm
02:50 AM 76.3°F24.6°C 70.1°F21.2°C 81% 3.8 mph ESE6.1 kmh ESE 5.4 mph8.7 kmh 29.82 in1009.8 mb 0.00 in0.0 mm 0.00 in0.0 mm 0.00 in0.0 mm
02:45 AM 76.1°F24.5°C 69.9°F21.1°C 81% 1.6 mph E2.6 kmh E 3.8 mph6.1 kmh 29.82 in1009.8 mb 0.00 in0.0 mm 0.00 in0.0 mm 0.00 in0.0 mm
02:35 AM 76.3°F24.6°C 69.7°F20.9°C 80% 1.6 mph SE2.6 kmh SE 3.8 mph6.1 kmh 29.82 in1009.8 mb 0.00 in0.0 mm 0.00 in0.0 mm 0.00 in0.0 mm
02:30 AM 76.3°F24.6°C 69.7°F20.9°C 80% 2.2 mph SE3.5 kmh SE 3.8 mph6.1 kmh 29.82 in1009.8 mb 0.00 in0.0 mm 0.00 in0.0 mm 0.00 in0.0 mm
02:25 AM 76.5°F24.7°C 69.9°F21.1°C 80% Calm Calm 3.8 mph6.1 kmh 29.82 in1009.8 mb 0.00 in0.0 mm 0.00 in0.0 mm 0.00 in0.0 mm
02:20 AM 76.5°F24.7°C 69.9°F21.1°C 80% 2.2 mph SE3.5 kmh SE 4.5 mph7.2 kmh 29.82 in1009.8 mb 0.00 in0.0 mm 0.00 in0.0 mm 0.00 in0.0 mm
02:10 AM 76.5°F24.7°C 70.2°F21.2°C 81% 2.2 mph SE3.5 kmh SE 4.5 mph7.2 kmh 29.83 in1010.2 mb 0.00 in0.0 mm 0.00 in0.0 mm 0.00 in0.0 mm
02:05 AM 76.5°F24.7°C 69.9°F21.1°C 80% 2.2 mph SE3.5 kmh SE 5.4 mph8.7 kmh 29.82 in1009.8 mb 0.00 in0.0 mm 0.00 in0.0 mm 0.00 in0.0 mm
02:00 AM 76.5°F24.7°C 69.9°F21.1°C 80% 1.6 mph SE2.6 kmh SE 5.4 mph8.7 kmh 29.82 in1009.8 mb 0.00 in0.0 mm 0.00 in0.0 mm 0.00 in0.0 mm
01:55 AM 76.6°F24.8°C 70.4°F21.3°C 81% 2.2 mph SE3.5 kmh SE 5.4 mph8.7 kmh 29.82 in1009.8 mb 0.00 in0.0 mm 0.00 in0.0 mm 0.00 in0.0 mm
01:45 AM 76.5°F24.7°C 69.9°F21.1°C 80% 3.1 mph ESE5.0 kmh ESE 8.3 mph13.4 kmh 29.82 in1009.8 mb 0.00 in0.0 mm 0.00 in0.0 mm 0.00 in0.0 mm
01:40 AM 76.3°F24.6°C 70.1°F21.2°C 81% 5.4 mph ESE8.7 kmh ESE 8.3 mph13.4 kmh 29.83 in1010.2 mb 0.00 in0.0 mm 0.00 in0.0 mm 0.00 in0.0 mm
01:35 AM 76.3°F24.6°C 69.7°F20.9°C 80% 4.5 mph E7.2 kmh E 7.6 mph12.2 kmh 29.83 in1010.2 mb 0.00 in0.0 mm 0.00 in0.0 mm 0.00 in0.0 mm
01:30 AM 76.1°F24.5°C 69.5°F20.8°C 80% 3.1 mph E5.0 kmh E 7.6 mph12.2 kmh 29.83 in1010.2 mb 0.00 in0.0 mm 0.00 in0.0 mm 0.00 in0.0 mm
01:20 AM 76.1°F24.5°C 69.5°F20.8°C 80% 0.7 mph ENE1.1 kmh ENE 2.2 mph3.5 kmh 29.82 in1009.8 mb 0.00 in0.0 mm 0.00 in0.0 mm 0.00 in0.0 mm
01:15 AM 76.1°F24.5°C 69.5°F20.8°C 80% 1.6 mph ENE2.6 kmh ENE 2.2 mph3.5 kmh 29.83 in1010.2 mb 0.00 in0.0 mm 0.00 in0.0 mm 0.00 in0.0 mm
01:10 AM 76.1°F24.5°C 69.5°F20.8°C 80% 0.7 mph E1.1 kmh E 1.6 mph2.6 kmh 29.83 in1010.2 mb 0.00 in0.0 mm 0.00 in0.0 mm 0.00 in0.0 mm
01:05 AM 76.1°F24.5°C 69.5°F20.8°C 80% Calm Calm 2.2 mph3.5 kmh 29.82 in1009.8 mb 0.00 in0.0 mm 0.00 in0.0 mm 0.00 in0.0 mm
12:55 AM 76.1°F24.5°C 69.5°F20.8°C 80% 1.6 mph SSW2.6 kmh SSW 2.2 mph3.5 kmh 29.83 in1010.2 mb 0.00 in0.0 mm 0.00 in0.0 mm 0.00 in0.0 mm
12:50 AM 76.5°F24.7°C 69.9°F21.1°C 80% Calm Calm 3.1 mph5.0 kmh 29.83 in1010.2 mb 0.00 in0.0 mm 0.00 in0.0 mm 0.00 in0.0 mm
12:45 AM 76.3°F24.6°C 69.7°F20.9°C 80% 0.7 mph NE1.1 kmh NE 3.1 mph5.0 kmh 29.83 in1010.2 mb 0.00 in0.0 mm 0.00 in0.0 mm 0.00 in0.0 mm
12:40 AM 76.5°F24.7°C 69.9°F21.1°C 80% 1.6 mph ESE2.6 kmh ESE 3.1 mph5.0 kmh 29.83 in1010.2 mb 0.00 in0.0 mm 0.00 in0.0 mm 0.00 in0.0 mm
12:30 AM 76.6°F24.8°C 70.1°F21.2°C 80% Calm Calm 2.2 mph3.5 kmh 29.83 in1010.2 mb 0.00 in0.0 mm 0.00 in0.0 mm 0.00 in0.0 mm
12:25 AM 76.6°F24.8°C 70.1°F21.2°C 80% Calm Calm 2.2 mph3.5 kmh 29.83 in1010.2 mb 0.00 in0.0 mm 0.00 in0.0 mm 0.00 in0.0 mm
12:20 AM 76.6°F24.8°C 70.1°F21.2°C 80% 1.6 mph SSE2.6 kmh SSE 2.2 mph3.5 kmh 29.83 in1010.2 mb 0.00 in0.0 mm 0.00 in0.0 mm 0.00 in0.0 mm
12:15 AM 76.6°F24.8°C 70.1°F21.2°C 80% 1.6 mph S2.6 kmh S 3.8 mph6.1 kmh 29.84 in1010.5 mb 0.00 in0.0 mm 0.00 in0.0 mm 0.00 in0.0 mm
12:10 AM 77.0°F25.0°C 70.4°F21.3°C 80% 1.6 mph S2.6 kmh S 3.8 mph6.1 kmh 29.83 in1010.2 mb 0.00 in0.0 mm 0.00 in0.0 mm 0.00 in0.0 mm
12:05 AM 76.8°F24.9°C 70.2°F21.2°C 80% 2.2 mph SSE3.5 kmh SSE 6.0 mph9.7 kmh 29.83 in1010.2 mb 0.00 in0.0 mm 0.00 in0.0 mm 0.00 in0.0 mm
12:00 AM 76.8°F24.9°C 70.6°F21.4°C 81% 3.1 mph SE5.0 kmh SE 6.0 mph9.7 kmh 29.82 in1009.8 mb 0.00 in0.0 mm 0.00 in0.0 mm 0.00 in0.0 mm